sensor_id;sensor_type;location;lat;lon;timestamp;pressure;altitude;pressure_sealevel;temperature;humidity
19789;BME280;10054;59.332;18.244;2023-12-22T00:00:07;95822.09;;;1.18;100.00
19789;BME280;10054;59.332;18.244;2023-12-22T00:02:36;95819.98;;;1.17;100.00
19789;BME280;10054;59.332;18.244;2023-12-22T00:05:06;95814.95;;;1.16;100.00
19789;BME280;10054;59.332;18.244;2023-12-22T00:07:35;95812.50;;;1.14;100.00
19789;BME280;10054;59.332;18.244;2023-12-22T00:10:05;95809.25;;;1.12;100.00
19789;BME280;10054;59.332;18.244;2023-12-22T00:12:33;95805.67;;;1.09;100.00
19789;BME280;10054;59.332;18.244;2023-12-22T00:15:03;95809.72;;;1.08;100.00
19789;BME280;10054;59.332;18.244;2023-12-22T00:17:32;95809.87;;;1.06;100.00
19789;BME280;10054;59.332;18.244;2023-12-22T00:20:01;95809.21;;;1.04;100.00
19789;BME280;10054;59.332;18.244;2023-12-22T00:22:31;95810.66;;;1.03;100.00
19789;BME280;10054;59.332;18.244;2023-12-22T00:25:00;95796.22;;;1.00;100.00
19789;BME280;10054;59.332;18.244;2023-12-22T00:27:29;95797.19;;;0.99;100.00
19789;BME280;10054;59.332;18.244;2023-12-22T00:29:58;95802.05;;;0.98;100.00
19789;BME280;10054;59.332;18.244;2023-12-22T00:32:27;95812.42;;;0.98;100.00
19789;BME280;10054;59.332;18.244;2023-12-22T00:34:56;95806.91;;;0.97;100.00
19789;BME280;10054;59.332;18.244;2023-12-22T00:37:26;95801.72;;;0.97;100.00
19789;BME280;10054;59.332;18.244;2023-12-22T00:39:55;95808.36;;;0.95;100.00
19789;BME280;10054;59.332;18.244;2023-12-22T00:42:24;95810.95;;;0.95;100.00
19789;BME280;10054;59.332;18.244;2023-12-22T00:44:55;95809.66;;;0.95;100.00
19789;BME280;10054;59.332;18.244;2023-12-22T00:47:24;95809.17;;;0.96;100.00
19789;BME280;10054;59.332;18.244;2023-12-22T00:49:53;95799.13;;;0.97;100.00
19789;BME280;10054;59.332;18.244;2023-12-22T00:52:22;95807.23;;;0.98;100.00
19789;BME280;10054;59.332;18.244;2023-12-22T00:54:51;95812.27;;;0.99;100.00
19789;BME280;10054;59.332;18.244;2023-12-22T00:57:20;95805.78;;;0.99;100.00
19789;BME280;10054;59.332;18.244;2023-12-22T00:59:50;95813.41;;;1.01;100.00
19789;BME280;10054;59.332;18.244;2023-12-22T01:02:19;95806.59;;;1.00;100.00
19789;BME280;10054;59.332;18.244;2023-12-22T01:04:48;95811.32;;;1.05;100.00
19789;BME280;10054;59.332;18.244;2023-12-22T01:07:17;95815.85;;;1.03;100.00
19789;BME280;10054;59.332;18.244;2023-12-22T01:09:46;95809.36;;;1.03;100.00
19789;BME280;10054;59.332;18.244;2023-12-22T01:12:15;95809.36;;;1.03;100.00
19789;BME280;10054;59.332;18.244;2023-12-22T01:14:45;95815.85;;;1.03;100.00
19789;BME280;10054;59.332;18.244;2023-12-22T01:17:14;95815.37;;;1.03;100.00
19789;BME280;10054;59.332;18.244;2023-12-22T01:19:43;95808.06;;;1.03;100.00
19789;BME280;10054;59.332;18.244;2023-12-22T01:22:13;95808.87;;;1.03;100.00
19789;BME280;10054;59.332;18.244;2023-12-22T01:24:42;95808.39;;;1.04;100.00
19789;BME280;10054;59.332;18.244;2023-12-22T01:27:12;95811.48;;;1.03;100.00
19789;BME280;10054;59.332;18.244;2023-12-22T01:29:42;95809.55;;;1.05;100.00
19789;BME280;10054;59.332;18.244;2023-12-22T01:32:11;95803.38;;;1.06;100.00
19789;BME280;10054;59.332;18.244;2023-12-22T01:34:40;95810.20;;;1.07;100.00
19789;BME280;10054;59.332;18.244;2023-12-22T01:37:10;95810.05;;;1.09;100.00
19789;BME280;10054;59.332;18.244;2023-12-22T01:39:39;95803.41;;;1.10;100.00
19789;BME280;10054;59.332;18.244;2023-12-22T01:42:08;95813.62;;;1.12;100.00
19789;BME280;10054;59.332;18.244;2023-12-22T01:44:37;95808.77;;;1.13;100.00
19789;BME280;10054;59.332;18.244;2023-12-22T01:47:06;95793.04;;;1.14;100.00
19789;BME280;10054;59.332;18.244;2023-12-22T01:49:35;95811.05;;;1.16;100.00
19789;BME280;10054;59.332;18.244;2023-12-22T01:52:04;95802.78;;;1.16;100.00
19789;BME280;10054;59.332;18.244;2023-12-22T01:54:33;95799.55;;;1.18;100.00
19789;BME280;10054;59.332;18.244;2023-12-22T01:57:21;95794.69;;;1.19;100.00
19789;BME280;10054;59.332;18.244;2023-12-22T01:59:51;95792.09;;;1.19;100.00
19789;BME280;10054;59.332;18.244;2023-12-22T02:02:20;95780.56;;;1.18;100.00
19789;BME280;10054;59.332;18.244;2023-12-22T02:04:50;95794.19;;;1.16;100.00
19789;BME280;10054;59.332;18.244;2023-12-22T02:07:19;95798.56;;;1.15;100.00
19789;BME280;10054;59.332;18.244;2023-12-22T02:09:48;95797.75;;;1.15;100.00
19789;BME280;10054;59.332;18.244;2023-12-22T02:12:18;95791.41;;;1.13;100.00
19789;BME280;10054;59.332;18.244;2023-12-22T02:14:47;95792.72;;;1.13;100.00
19789;BME280;10054;59.332;18.244;2023-12-22T02:17:36;95810.55;;;1.12;100.00
19789;BME280;10054;59.332;18.244;2023-12-22T02:20:01;95790.27;;;1.12;100.00
19789;BME280;10054;59.332;18.244;2023-12-22T02:22:31;95811.52;;;1.11;100.00
19789;BME280;10054;59.332;18.244;2023-12-22T02:25:01;95803.41;;;1.10;100.00
19789;BME280;10054;59.332;18.244;2023-12-22T02:27:39;95799.03;;;1.11;100.00
19789;BME280;10054;59.332;18.244;2023-12-22T02:30:13;95810.38;;;1.10;100.00
19789;BME280;10054;59.332;18.244;2023-12-22T02:32:43;95799.66;;;1.09;100.00
19789;BME280;10054;59.332;18.244;2023-12-22T02:35:17;95799.82;;;1.07;100.00
19789;BME280;10054;59.332;18.244;2023-12-22T02:37:47;95798.85;;;1.08;100.00
19789;BME280;10054;59.332;18.244;2023-12-22T02:40:17;95796.59;;;1.09;100.00
19789;BME280;10054;59.332;18.244;2023-12-22T02:42:47;95799.18;;;1.09;100.00
19789;BME280;10054;59.332;18.244;2023-12-22T02:45:18;95793.51;;;1.10;100.00
19789;BME280;10054;59.332;18.244;2023-12-22T02:47:47;95787.50;;;1.09;100.00
19789;BME280;10054;59.332;18.244;2023-12-22T02:50:16;95807.30;;;1.10;100.00
19789;BME280;10054;59.332;18.244;2023-12-22T02:52:45;95804.70;;;1.10;100.00
19789;BME280;10054;59.332;18.244;2023-12-22T02:55:14;95808.59;;;1.10;100.00
19789;BME280;10054;59.332;18.244;2023-12-22T02:57:43;95815.89;;;1.11;100.00
19789;BME280;10054;59.332;18.244;2023-12-22T03:00:13;95817.67;;;1.10;100.00
19789;BME280;10054;59.332;18.244;2023-12-22T03:02:42;95811.50;;;1.07;100.00
19789;BME280;10054;59.332;18.244;2023-12-22T03:05:11;95808.91;;;1.07;100.00
19789;BME280;10054;59.332;18.244;2023-12-22T03:07:41;95819.61;;;1.08;100.00
19789;BME280;10054;59.332;18.244;2023-12-22T03:10:10;95833.73;;;1.10;100.00
19789;BME280;10054;59.332;18.244;2023-12-22T03:12:39;95821.56;;;1.10;100.00
19789;BME280;10054;59.332;18.244;2023-12-22T03:15:09;95829.02;;;1.09;100.00
19789;BME280;10054;59.332;18.244;2023-12-22T03:17:38;95835.35;;;1.11;100.00
19789;BME280;10054;59.332;18.244;2023-12-22T03:20:07;95822.05;;;1.10;100.00
19789;BME280;10054;59.332;18.244;2023-12-22T03:22:36;95832.91;;;1.09;100.00
19789;BME280;10054;59.332;18.244;2023-12-22T03:25:06;95836.80;;;1.09;100.00
19789;BME280;10054;59.332;18.244;2023-12-22T03:27:35;95823.83;;;1.09;100.00
19789;BME280;10054;59.332;18.244;2023-12-22T03:30:05;95828.84;;;1.07;100.00
19789;BME280;10054;59.332;18.244;2023-12-22T03:32:34;95845.86;;;1.05;100.00
19789;BME280;10054;59.332;18.244;2023-12-22T03:35:04;95834.19;;;1.05;100.00
19789;BME280;10054;59.332;18.244;2023-12-22T03:37:33;95835.64;;;1.04;100.00
19789;BME280;10054;59.332;18.244;2023-12-22T03:40:03;95842.13;;;1.04;100.00
19789;BME280;10054;59.332;18.244;2023-12-22T03:42:32;95846.50;;;1.03;100.00
19789;BME280;10054;59.332;18.244;2023-12-22T03:45:01;95847.14;;;1.01;100.00
19789;BME280;10054;59.332;18.244;2023-12-22T03:47:30;95853.14;;;1.02;100.00
19789;BME280;10054;59.332;18.244;2023-12-22T03:49:59;95845.52;;;1.00;100.00
19789;BME280;10054;59.332;18.244;2023-12-22T03:52:29;95861.56;;;0.99;100.00
19789;BME280;10054;59.332;18.244;2023-12-22T03:54:58;95852.16;;;0.98;100.00
19789;BME280;10054;59.332;18.244;2023-12-22T03:57:27;95876.31;;;0.99;100.00
19789;BME280;10054;59.332;18.244;2023-12-22T03:59:56;95858.16;;;0.99;100.00
19789;BME280;10054;59.332;18.244;2023-12-22T04:02:25;95863.49;;;0.97;100.00
19789;BME280;10054;59.332;18.244;2023-12-22T04:04:54;95860.57;;;0.96;100.00
19789;BME280;10054;59.332;18.244;2023-12-22T04:07:24;95869.65;;;0.96;100.00
19789;BME280;10054;59.332;18.244;2023-12-22T04:09:53;95879.06;;;0.97;100.00
19789;BME280;10054;59.332;18.244;2023-12-22T04:12:22;95872.58;;;0.97;100.00
19789;BME280;10054;59.332;18.244;2023-12-22T04:14:51;95873.88;;;0.97;100.00
19789;BME280;10054;59.332;18.244;2023-12-22T04:17:21;95882.47;;;0.98;100.00
19789;BME280;10054;59.332;18.244;2023-12-22T04:19:50;95884.91;;;0.99;100.00
19789;BME280;10054;59.332;18.244;2023-12-22T04:22:20;95874.53;;;0.99;100.00
19789;BME280;10054;59.332;18.244;2023-12-22T04:24:51;95893.03;;;1.01;100.00
19789;BME280;10054;59.332;18.244;2023-12-22T04:27:20;95891.73;;;1.01;100.00
19789;BME280;10054;59.332;18.244;2023-12-22T04:29:49;95895.63;;;1.01;100.00
19789;BME280;10054;59.332;18.244;2023-12-22T04:32:18;95909.41;;;1.01;100.00
19789;BME280;10054;59.332;18.244;2023-12-22T04:34:47;95910.88;;;1.04;100.00
19789;BME280;10054;59.332;18.244;2023-12-22T04:37:16;95914.30;;;1.04;100.00
19789;BME280;10054;59.332;18.244;2023-12-22T04:39:45;95915.11;;;1.05;100.00
19789;BME280;10054;59.332;18.244;2023-12-22T04:42:15;95924.34;;;1.03;100.00
19789;BME280;10054;59.332;18.244;2023-12-22T04:44:44;95927.41;;;1.03;100.00
19789;BME280;10054;59.332;18.244;2023-12-22T04:47:13;95922.53;;;0.99;100.00
19789;BME280;10054;59.332;18.244;2023-12-22T04:49:42;95926.91;;;0.99;100.00
19789;BME280;10054;59.332;18.244;2023-12-22T04:52:11;95927.88;;;0.98;100.00
19789;BME280;10054;59.332;18.244;2023-12-22T04:54:41;95936.28;;;0.96;100.00
19789;BME280;10054;59.332;18.244;2023-12-22T04:57:10;95938.88;;;0.96;100.00
19789;BME280;10054;59.332;18.244;2023-12-22T04:59:39;95932.55;;;0.94;100.00
19789;BME280;10054;59.332;18.244;2023-12-22T05:02:08;95945.34;;;0.92;100.00
19789;BME280;10054;59.332;18.244;2023-12-22T05:04:37;95952.64;;;0.92;100.00
19789;BME280;10054;59.332;18.244;2023-12-22T05:07:07;95951.31;;;0.88;100.00
19789;BME280;10054;59.332;18.244;2023-12-22T05:09:37;95949.77;;;0.78;100.00
19789;BME280;10054;59.332;18.244;2023-12-22T05:12:06;95957.17;;;0.69;100.00
19789;BME280;10054;59.332;18.244;2023-12-22T05:14:36;95965.88;;;0.63;100.00
19789;BME280;10054;59.332;18.244;2023-12-22T05:17:05;95971.66;;;0.57;100.00
19789;BME280;10054;59.332;18.244;2023-12-22T05:19:34;95961.73;;;0.53;100.00
19789;BME280;10054;59.332;18.244;2023-12-22T05:22:03;95972.58;;;0.52;100.00
19789;BME280;10054;59.332;18.244;2023-12-22T05:24:32;95986.80;;;0.48;100.00
19789;BME280;10054;59.332;18.244;2023-12-22T05:27:01;95985.02;;;0.49;100.00
19789;BME280;10054;59.332;18.244;2023-12-22T05:29:30;95984.02;;;0.46;100.00
19789;BME280;10054;59.332;18.244;2023-12-22T05:32:00;95990.31;;;0.43;100.00
19789;BME280;10054;59.332;18.244;2023-12-22T05:34:29;95991.94;;;0.44;100.00
19789;BME280;10054;59.332;18.244;2023-12-22T05:36:58;95999.38;;;0.43;100.00
19789;BME280;10054;59.332;18.244;2023-12-22T05:39:29;95998.08;;;0.43;100.00
19789;BME280;10054;59.332;18.244;2023-12-22T05:41:58;95990.45;;;0.42;100.00
19789;BME280;10054;59.332;18.244;2023-12-22T05:44:27;95993.38;;;0.43;100.00
19789;BME280;10054;59.332;18.244;2023-12-22T05:46:59;96002.94;;;0.42;100.00
19789;BME280;10054;59.332;18.244;2023-12-22T05:49:28;96006.48;;;0.41;100.00
19789;BME280;10054;59.332;18.244;2023-12-22T05:51:57;96015.23;;;0.40;100.00
19789;BME280;10054;59.332;18.244;2023-12-22T05:54:26;96015.70;;;0.40;100.00
19789;BME280;10054;59.332;18.244;2023-12-22T05:56:56;96021.38;;;0.39;100.00
19789;BME280;10054;59.332;18.244;2023-12-22T05:59:25;96030.78;;;0.40;100.00
19789;BME280;10054;59.332;18.244;2023-12-22T06:01:55;96034.19;;;0.41;100.00
19789;BME280;10054;59.332;18.244;2023-12-22T06:04:25;96042.92;;;0.40;100.00
19789;BME280;10054;59.332;18.244;2023-12-22T06:06:54;96058.81;;;0.41;100.00
19789;BME280;10054;59.332;18.244;2023-12-22T06:09:23;96055.73;;;0.41;100.00
19789;BME280;10054;59.332;18.244;2023-12-22T06:11:53;96061.25;;;0.42;100.00
19789;BME280;10054;59.332;18.244;2023-12-22T06:14:22;96056.07;;;0.42;100.00
19789;BME280;10054;59.332;18.244;2023-12-22T06:16:51;96047.00;;;0.42;100.00
19789;BME280;10054;59.332;18.244;2023-12-22T06:19:21;96063.70;;;0.44;100.00
19789;BME280;10054;59.332;18.244;2023-12-22T06:21:52;96063.70;;;0.44;100.00
19789;BME280;10054;59.332;18.244;2023-12-22T06:24:21;96073.59;;;0.44;100.00
19789;BME280;10054;59.332;18.244;2023-12-22T06:26:50;96072.63;;;0.45;100.00
19789;BME280;10054;59.332;18.244;2023-12-22T06:29:19;96073.92;;;0.45;100.00
19789;BME280;10054;59.332;18.244;2023-12-22T06:31:48;96084.30;;;0.45;100.00
19789;BME280;10054;59.332;18.244;2023-12-22T06:34:18;96088.52;;;0.46;100.00
19789;BME280;10054;59.332;18.244;2023-12-22T06:36:47;96089.34;;;0.47;100.00
19789;BME280;10054;59.332;18.244;2023-12-22T06:39:17;96092.41;;;0.46;100.00
19789;BME280;10054;59.332;18.244;2023-12-22T06:41:47;96099.23;;;0.47;100.00
19789;BME280;10054;59.332;18.244;2023-12-22T06:44:16;96114.30;;;0.48;100.00
19789;BME280;10054;59.332;18.244;2023-12-22T06:46:45;96118.53;;;0.49;100.00
19789;BME280;10054;59.332;18.244;2023-12-22T06:49:15;96112.05;;;0.49;100.00
19789;BME280;10054;59.332;18.244;2023-12-22T06:51:44;96109.79;;;0.50;100.00
19789;BME280;10054;59.332;18.244;2023-12-22T06:54:13;96122.75;;;0.50;100.00
19789;BME280;10054;59.332;18.244;2023-12-22T06:56:42;96122.42;;;0.49;100.00
19789;BME280;10054;59.332;18.244;2023-12-22T06:59:11;96131.16;;;0.48;100.00
19789;BME280;10054;59.332;18.244;2023-12-22T07:01:40;96136.34;;;0.48;100.00
19789;BME280;10054;59.332;18.244;2023-12-22T07:04:10;96146.84;;;0.46;100.00
19789;BME280;10054;59.332;18.244;2023-12-22T07:06:39;96150.12;;;0.48;100.00
19789;BME280;10054;59.332;18.244;2023-12-22T07:11:45;96159.53;;;0.49;100.00
19789;BME280;10054;59.332;18.244;2023-12-22T07:14:15;96158.71;;;0.49;100.00
19789;BME280;10054;59.332;18.244;2023-12-22T07:16:44;96174.41;;;0.47;100.00
19789;BME280;10054;59.332;18.244;2023-12-22T07:19:13;96179.11;;;0.48;100.00
19789;BME280;10054;59.332;18.244;2023-12-22T07:21:42;96187.70;;;0.48;100.00
19789;BME280;10054;59.332;18.244;2023-12-22T07:24:11;96183.82;;;0.48;100.00
19789;BME280;10054;59.332;18.244;2023-12-22T07:26:41;96190.30;;;0.48;100.00
19789;BME280;10054;59.332;18.244;2023-12-22T07:29:11;96192.41;;;0.49;100.00
19789;BME280;10054;59.332;18.244;2023-12-22T07:31:40;96188.86;;;0.50;100.00
19789;BME280;10054;59.332;18.244;2023-12-22T07:34:09;96193.23;;;0.49;100.00
19789;BME280;10054;59.332;18.244;2023-12-22T07:36:38;96197.45;;;0.50;100.00
19789;BME280;10054;59.332;18.244;2023-12-22T07:39:07;96203.45;;;0.51;100.00
19789;BME280;10054;59.332;18.244;2023-12-22T07:41:37;96206.87;;;0.51;100.00
19789;BME280;10054;59.332;18.244;2023-12-22T07:44:06;96219.49;;;0.50;100.00
19789;BME280;10054;59.332;18.244;2023-12-22T07:46:35;96213.49;;;0.50;100.00
19789;BME280;10054;59.332;18.244;2023-12-22T07:49:04;96217.86;;;0.49;100.00
19789;BME280;10054;59.332;18.244;2023-12-22T07:51:33;96227.55;;;0.47;100.00
19789;BME280;10054;59.332;18.244;2023-12-22T07:54:02;96224.81;;;0.49;100.00
19789;BME280;10054;59.332;18.244;2023-12-22T07:56:31;96226.94;;;0.49;100.00
19789;BME280;10054;59.332;18.244;2023-12-22T07:59:00;96230.82;;;0.49;100.00
19789;BME280;10054;59.332;18.244;2023-12-22T08:01:30;96242.15;;;0.48;100.00
19789;BME280;10054;59.332;18.244;2023-12-22T08:03:59;96243.92;;;0.48;100.00
19789;BME280;10054;59.332;18.244;2023-12-22T08:06:30;96256.69;;;0.45;100.00
19789;BME280;10054;59.332;18.244;2023-12-22T08:08:59;96245.84;;;0.46;100.00
19789;BME280;10054;59.332;18.244;2023-12-22T08:11:29;96255.39;;;0.45;100.00
19789;BME280;10054;59.332;18.244;2023-12-22T08:13:58;96253.61;;;0.46;100.00
19789;BME280;10054;59.332;18.244;2023-12-22T08:16:27;96253.95;;;0.47;100.00
19789;BME280;10054;59.332;18.244;2023-12-22T08:18:56;96263.03;;;0.47;100.00
19789;BME280;10054;59.332;18.244;2023-12-22T08:21:25;96266.10;;;0.46;100.00
19789;BME280;10054;59.332;18.244;2023-12-22T08:23:55;96273.87;;;0.46;100.00
19789;BME280;10054;59.332;18.244;2023-12-22T08:26:24;96273.06;;;0.46;100.00
19789;BME280;10054;59.332;18.244;2023-12-22T08:28:53;96275.99;;;0.47;100.00
19789;BME280;10054;59.332;18.244;2023-12-22T08:31:22;96283.29;;;0.47;100.00
19789;BME280;10054;59.332;18.244;2023-12-22T08:33:51;96277.62;;;0.48;100.00
19789;BME280;10054;59.332;18.244;2023-12-22T08:36:20;96287.52;;;0.48;100.00
19789;BME280;10054;59.332;18.244;2023-12-22T08:38:49;96284.11;;;0.48;100.00
19789;BME280;10054;59.332;18.244;2023-12-22T08:41:18;96283.16;;;0.49;100.00
19789;BME280;10054;59.332;18.244;2023-12-22T08:43:48;96290.59;;;0.48;100.00
19789;BME280;10054;59.332;18.244;2023-12-22T08:46:19;96291.41;;;0.48;100.00
19789;BME280;10054;59.332;18.244;2023-12-22T08:48:48;96289.97;;;0.50;100.00
19789;BME280;10054;59.332;18.244;2023-12-22T08:51:17;96292.22;;;0.49;100.00
19789;BME280;10054;59.332;18.244;2023-12-22T08:53:46;96301.09;;;0.46;100.00
19789;BME280;10054;59.332;18.244;2023-12-22T08:56:17;96297.21;;;0.46;100.00
19789;BME280;10054;59.332;18.244;2023-12-22T08:58:46;96294.62;;;0.46;100.00
19789;BME280;10054;59.332;18.244;2023-12-22T09:01:17;96307.23;;;0.45;100.00
19789;BME280;10054;59.332;18.244;2023-12-22T09:03:47;96307.23;;;0.45;100.00
19789;BME280;10054;59.332;18.244;2023-12-22T09:06:17;96302.53;;;0.45;100.00
19789;BME280;10054;59.332;18.244;2023-12-22T09:08:47;96309.02;;;0.45;100.00
19789;BME280;10054;59.332;18.244;2023-12-22T09:11:17;96316.99;;;0.47;100.00
19789;BME280;10054;59.332;18.244;2023-12-22T09:13:47;96310.65;;;0.46;100.00
19789;BME280;10054;59.332;18.244;2023-12-22T09:16:22;96316.17;;;0.47;100.00
19789;BME280;10054;59.332;18.244;2023-12-22T09:18:53;96319.59;;;0.47;100.00
19789;BME280;10054;59.332;18.244;2023-12-22T09:21:22;96310.52;;;0.47;100.00
19789;BME280;10054;59.332;18.244;2023-12-22T09:23:52;96323.47;;;0.47;100.00
19789;BME280;10054;59.332;18.244;2023-12-22T09:26:21;96310.98;;;0.47;100.00
19789;BME280;10054;59.332;18.244;2023-12-22T09:28:50;96316.17;;;0.47;100.00
19789;BME280;10054;59.332;18.244;2023-12-22T09:31:19;96314.88;;;0.47;100.00
19789;BME280;10054;59.332;18.244;2023-12-22T09:33:49;96317.95;;;0.46;100.00
19789;BME280;10054;59.332;18.244;2023-12-22T09:36:19;96314.67;;;0.44;100.00
19789;BME280;10054;59.332;18.244;2023-12-22T09:38:48;96317.13;;;0.46;100.00
19789;BME280;10054;59.332;18.244;2023-12-22T09:41:18;96317.95;;;0.46;100.00
19789;BME280;10054;59.332;18.244;2023-12-22T09:43:49;96315.97;;;0.44;100.00
19789;BME280;10054;59.332;18.244;2023-12-22T09:46:19;96321.50;;;0.45;100.00
19789;BME280;10054;59.332;18.244;2023-12-22T09:48:51;96318.43;;;0.46;100.00
19789;BME280;10054;59.332;18.244;2023-12-22T09:51:21;96326.06;;;0.47;100.00
19789;BME280;10054;59.332;18.244;2023-12-22T09:53:50;96331.25;;;0.47;100.00
19789;BME280;10054;59.332;18.244;2023-12-22T09:56:20;96327.50;;;0.46;100.00
19789;BME280;10054;59.332;18.244;2023-12-22T09:58:50;96334.52;;;0.49;100.00
19789;BME280;10054;59.332;18.244;2023-12-22T10:01:20;96336.78;;;0.48;100.00
19789;BME280;10054;59.332;18.244;2023-12-22T10:03:51;96331.59;;;0.48;100.00
19789;BME280;10054;59.332;18.244;2023-12-22T10:06:20;96338.07;;;0.48;100.00
19789;BME280;10054;59.332;18.244;2023-12-22T10:08:49;96335.48;;;0.48;100.00
19789;BME280;10054;59.332;18.244;2023-12-22T10:11:19;96337.39;;;0.46;100.00
19789;BME280;10054;59.332;18.244;2023-12-22T10:13:51;96339.64;;;0.45;100.00
19789;BME280;10054;59.332;18.244;2023-12-22T10:16:21;96335.76;;;0.45;100.00
19789;BME280;10054;59.332;18.244;2023-12-22T10:18:50;96341.56;;;0.43;100.00
19789;BME280;10054;59.332;18.244;2023-12-22T10:21:20;96344.35;;;0.46;100.00
19789;BME280;10054;59.332;18.244;2023-12-22T10:23:49;96343.53;;;0.45;100.00
19789;BME280;10054;59.332;18.244;2023-12-22T10:26:18;96346.60;;;0.45;100.00
19789;BME280;10054;59.332;18.244;2023-12-22T10:28:48;96342.37;;;0.44;100.00
19789;BME280;10054;59.332;18.244;2023-12-22T10:31:18;96339.17;;;0.46;100.00
19789;BME280;10054;59.332;18.244;2023-12-22T10:33:47;96342.58;;;0.46;100.00
19789;BME280;10054;59.332;18.244;2023-12-22T10:36:16;96347.14;;;0.48;100.00
19789;BME280;10054;59.332;18.244;2023-12-22T10:38:45;96343.88;;;0.46;100.00
19789;BME280;10054;59.332;18.244;2023-12-22T10:41:14;96349.05;;;0.46;100.00
19789;BME280;10054;59.332;18.244;2023-12-22T10:43:45;96345.51;;;0.47;100.00
19789;BME280;10054;59.332;18.244;2023-12-22T10:46:14;96352.95;;;0.46;100.00
19789;BME280;10054;59.332;18.244;2023-12-22T10:48:43;96352.19;;;0.50;100.00
19789;BME280;10054;59.332;18.244;2023-12-22T10:51:15;96351.72;;;0.50;100.00
19789;BME280;10054;59.332;18.244;2023-12-22T10:53:44;96358.67;;;0.50;100.00
19789;BME280;10054;59.332;18.244;2023-12-22T10:56:13;96354.31;;;0.50;100.00
19789;BME280;10054;59.332;18.244;2023-12-22T10:58:44;96354.78;;;0.50;100.00
19789;BME280;10054;59.332;18.244;2023-12-22T11:01:14;96355.47;;;0.52;100.00
19789;BME280;10054;59.332;18.244;2023-12-22T11:03:45;96354.98;;;0.52;100.00
19789;BME280;10054;59.332;18.244;2023-12-22T11:06:16;96358.27;;;0.54;100.00
19789;BME280;10054;59.332;18.244;2023-12-22T11:08:47;96359.56;;;0.54;100.00
19789;BME280;10054;59.332;18.244;2023-12-22T11:11:25;96355.39;;;0.57;100.00
19789;BME280;10054;59.332;18.244;2023-12-22T11:13:51;96354.09;;;0.57;100.00
19789;BME280;10054;59.332;18.244;2023-12-22T11:16:22;96358.25;;;0.64;100.00
19789;BME280;10054;59.332;18.244;2023-12-22T11:18:54;96354.30;;;0.60;100.00
19789;BME280;10054;59.332;18.244;2023-12-22T11:21:24;96356.01;;;0.55;100.00
19789;BME280;10054;59.332;18.244;2023-12-22T11:23:55;96360.03;;;0.54;100.00
19789;BME280;10054;59.332;18.244;2023-12-22T11:26:28;96354.58;;;0.57;100.00
19789;BME280;10054;59.332;18.244;2023-12-22T11:28:58;96354.16;;;0.61;100.00
19789;BME280;10054;59.332;18.244;2023-12-22T11:31:28;96357.02;;;0.68;100.00
19789;BME280;10054;59.332;18.244;2023-12-22T11:33:59;96356.34;;;0.66;100.00
19789;BME280;10054;59.332;18.244;2023-12-22T11:36:30;96351.56;;;0.61;100.00
19789;BME280;10054;59.332;18.244;2023-12-22T11:38:59;96362.22;;;0.58;100.00
19789;BME280;10054;59.332;18.244;2023-12-22T11:41:34;96360.31;;;0.51;100.00
19789;BME280;10054;59.332;18.244;2023-12-22T11:44:05;96366.45;;;0.50;100.00
19789;BME280;10054;59.332;18.244;2023-12-22T11:46:34;96371.30;;;0.49;100.00
19789;BME280;10054;59.332;18.244;2023-12-22T11:49:04;96373.55;;;0.48;100.00
19789;BME280;10054;59.332;18.244;2023-12-22T11:51:34;96376.48;;;0.49;100.00
19789;BME280;10054;59.332;18.244;2023-12-22T11:54:04;96376.83;;;0.50;100.00
19789;BME280;10054;59.332;18.244;2023-12-22T11:56:34;96371.44;;;0.47;100.00
19789;BME280;10054;59.332;18.244;2023-12-22T11:59:04;96375.66;;;0.48;100.00
19789;BME280;10054;59.332;18.244;2023-12-22T12:01:34;96376.96;;;0.48;100.00
19789;BME280;10054;59.332;18.244;2023-12-22T12:04:04;96374.84;;;0.48;100.00
19789;BME280;10054;59.332;18.244;2023-12-22T12:06:34;96377.58;;;0.46;100.00
19789;BME280;10054;59.332;18.244;2023-12-22T12:09:06;96372.73;;;0.47;100.00
19789;BME280;10054;59.332;18.244;2023-12-22T12:14:32;96377.44;;;0.48;100.00
19789;BME280;10054;59.332;18.244;2023-12-22T12:17:06;96380.03;;;0.48;100.00
19789;BME280;10054;59.332;18.244;2023-12-22T12:19:42;96379.35;;;0.46;100.00
19789;BME280;10054;59.332;18.244;2023-12-22T12:22:06;96380.64;;;0.46;100.00
19789;BME280;10054;59.332;18.244;2023-12-22T12:24:36;96385.97;;;0.44;100.00
19789;BME280;10054;59.332;18.244;2023-12-22T12:27:06;96384.40;;;0.47;100.00
19789;BME280;10054;59.332;18.244;2023-12-22T12:29:36;96384.05;;;0.46;100.00
19789;BME280;10054;59.332;18.244;2023-12-22T12:32:06;96391.91;;;0.41;100.00
19789;BME280;10054;59.332;18.244;2023-12-22T12:34:35;96396.27;;;0.40;100.00
19789;BME280;10054;59.332;18.244;2023-12-22T12:37:04;96407.59;;;0.39;100.00
19789;BME280;10054;59.332;18.244;2023-12-22T12:39:34;96390.54;;;0.37;100.00
19789;BME280;10054;59.332;18.244;2023-12-22T12:42:06;96394.29;;;0.38;100.00
19789;BME280;10054;59.332;18.244;2023-12-22T12:44:36;96395.24;;;0.37;100.00
19789;BME280;10054;59.332;18.244;2023-12-22T12:47:18;96402.06;;;0.38;100.00
19789;BME280;10054;59.332;18.244;2023-12-22T12:49:44;96399.61;;;0.37;100.00
19789;BME280;10054;59.332;18.244;2023-12-22T12:52:14;96401.38;;;0.36;100.00
19789;BME280;10054;59.332;18.244;2023-12-22T12:54:43;96405.27;;;0.36;100.00
19789;BME280;10054;59.332;18.244;2023-12-22T12:57:16;96401.86;;;0.36;100.00
19789;BME280;10054;59.332;18.244;2023-12-22T12:59:51;96410.45;;;0.36;100.00
19789;BME280;10054;59.332;18.244;2023-12-22T13:02:20;96405.88;;;0.34;100.00
19789;BME280;10054;59.332;18.244;2023-12-22T13:04:50;96407.52;;;0.35;100.00
19789;BME280;10054;59.332;18.244;2023-12-22T13:07:25;96408.81;;;0.35;100.00